createdAt,value
2018-08-10T00:01:47.810Z,99.90
2018-08-10T00:04:14.860Z,99.90
2018-08-10T00:06:41.853Z,99.90
2018-08-10T00:09:10.266Z,99.90
2018-08-10T00:11:37.283Z,99.90
2018-08-10T00:14:04.332Z,99.90
2018-08-10T00:16:31.367Z,99.90
2018-08-10T00:18:58.372Z,99.90
2018-08-10T00:21:25.687Z,99.90
2018-08-10T00:23:52.701Z,99.90
2018-08-10T00:26:19.685Z,99.90
2018-08-10T00:28:46.792Z,99.90
2018-08-10T00:31:13.811Z,99.90
2018-08-10T00:33:40.875Z,99.90
2018-08-10T00:36:07.888Z,99.90
2018-08-10T00:38:34.991Z,99.90
2018-08-10T00:41:02.054Z,99.90
2018-08-10T00:43:29.121Z,99.90
2018-08-10T00:45:56.200Z,99.90
2018-08-10T00:48:23.231Z,99.90
2018-08-10T00:50:50.495Z,99.90
2018-08-10T00:53:17.510Z,99.90
2018-08-10T00:55:44.551Z,99.90
2018-08-10T00:58:11.615Z,99.90
2018-08-10T01:00:38.604Z,99.90
2018-08-10T01:03:05.608Z,99.90
2018-08-10T01:05:32.610Z,99.90
2018-08-10T01:07:59.615Z,99.90
2018-08-10T01:10:26.560Z,99.90
2018-08-10T01:12:53.533Z,99.90
2018-08-10T01:15:20.460Z,99.90
2018-08-10T01:17:47.481Z,99.90
2018-08-10T01:20:17.461Z,99.90
2018-08-10T01:22:50.304Z,99.90
2018-08-10T01:25:18.239Z,99.90
2018-08-10T01:27:51.118Z,99.90
2018-08-10T01:30:18.095Z,99.90
2018-08-10T01:32:45.118Z,99.90
2018-08-10T01:35:12.172Z,99.90
2018-08-10T01:37:39.162Z,99.90
2018-08-10T01:40:06.689Z,99.90
2018-08-10T01:42:33.853Z,99.90
2018-08-10T01:45:00.908Z,99.90
2018-08-10T01:47:27.958Z,99.90
2018-08-10T01:49:54.959Z,99.90
2018-08-10T01:52:21.963Z,99.90
2018-08-10T01:54:48.915Z,99.90
2018-08-10T01:57:15.893Z,99.90
2018-08-10T01:59:43.004Z,99.90
2018-08-10T02:02:09.972Z,99.90
2018-08-10T02:04:36.956Z,99.90
2018-08-10T02:07:04.238Z,99.90
2018-08-10T02:09:31.267Z,99.90
2018-08-10T02:11:58.283Z,99.90
2018-08-10T02:14:25.304Z,99.10
2018-08-10T02:16:52.323Z,99.90
2018-08-10T02:19:19.316Z,99.50
2018-08-10T02:21:46.644Z,98.70
2018-08-10T02:24:13.651Z,99.90
2018-08-10T02:26:40.687Z,99.90
2018-08-10T02:29:07.689Z,99.90
2018-08-10T02:31:34.690Z,99.90
2018-08-10T02:34:01.666Z,99.90
2018-08-10T02:36:28.693Z,99.90
2018-08-10T02:38:55.629Z,99.90
2018-08-10T02:41:22.606Z,99.90
2018-08-10T02:43:49.597Z,99.90
2018-08-10T02:46:16.574Z,99.90
2018-08-10T02:48:43.576Z,99.70
2018-08-10T02:51:10.589Z,99.90
2018-08-10T02:53:37.538Z,98.00
2018-08-10T02:56:04.522Z,99.90
2018-08-10T02:58:31.567Z,98.20
2018-08-10T03:00:58.516Z,98.80
2018-08-10T03:03:25.562Z,98.20
2018-08-10T03:05:52.556Z,96.90
2018-08-10T03:08:19.603Z,97.50
2018-08-10T03:10:46.591Z,96.90
2018-08-10T03:13:13.577Z,96.20
2018-08-10T03:15:40.633Z,96.90
2018-08-10T03:18:07.648Z,96.20
2018-08-10T03:20:34.999Z,95.10
2018-08-10T03:23:01.985Z,95.80
2018-08-10T03:25:28.954Z,94.60
2018-08-10T03:27:55.928Z,95.20
2018-08-10T03:30:22.944Z,93.90
2018-08-10T03:32:49.909Z,94.40
2018-08-10T03:35:16.964Z,94.00
2018-08-10T03:37:43.974Z,93.20
2018-08-10T03:40:12.512Z,93.20
2018-08-10T03:42:39.526Z,93.30
2018-08-10T03:45:07.023Z,93.40
2018-08-10T03:47:34.067Z,92.60
2018-08-10T03:50:01.085Z,91.80
2018-08-10T03:52:28.036Z,92.80
2018-08-10T03:54:55.151Z,93.00
2018-08-10T03:57:22.192Z,93.00
2018-08-10T03:59:49.222Z,93.50
2018-08-10T04:02:16.257Z,94.10
2018-08-10T04:04:43.280Z,93.50
2018-08-10T04:07:10.255Z,93.70
2018-08-10T04:09:37.254Z,92.80
2018-08-10T04:12:04.935Z,93.10
2018-08-10T04:14:31.949Z,92.70
2018-08-10T04:16:58.932Z,93.70
2018-08-10T04:19:26.254Z,93.40
2018-08-10T04:21:53.358Z,91.80
2018-08-10T04:24:20.333Z,92.20
2018-08-10T04:26:47.362Z,92.20
2018-08-10T04:29:14.382Z,90.60
2018-08-10T04:31:41.427Z,90.80
2018-08-10T04:34:08.499Z,91.30
2018-08-10T04:36:35.486Z,90.90
2018-08-10T04:39:03.717Z,91.40
2018-08-10T04:41:30.722Z,91.10
2018-08-10T04:43:57.748Z,89.60
2018-08-10T04:46:24.781Z,89.90
2018-08-10T04:48:51.821Z,89.90
2018-08-10T04:51:18.855Z,89.30
2018-08-10T04:53:45.834Z,89.90
2018-08-10T04:56:12.827Z,88.50
2018-08-10T04:58:39.908Z,88.40
2018-08-10T05:01:06.878Z,87.10
2018-08-10T05:03:34.231Z,87.10
2018-08-10T05:06:01.145Z,86.80
2018-08-10T05:08:28.125Z,84.80
2018-08-10T05:10:55.126Z,84.90
2018-08-10T05:13:22.161Z,86.40
2018-08-10T05:15:49.245Z,83.70
2018-08-10T05:18:16.160Z,83.30
2018-08-10T05:20:43.162Z,84.20
2018-08-10T05:23:10.142Z,84.00
2018-08-10T05:25:37.139Z,83.40
2018-08-10T05:28:04.142Z,82.10
2018-08-10T05:30:31.098Z,80.30
2018-08-10T05:32:58.088Z,78.90
2018-08-10T05:35:25.034Z,78.60
2018-08-10T05:37:52.018Z,77.70
2018-08-10T05:40:18.977Z,78.20
2018-08-10T05:42:45.939Z,77.50
2018-08-10T05:45:12.958Z,77.30
2018-08-10T05:47:39.942Z,76.50
2018-08-10T05:50:07.184Z,77.60
2018-08-10T05:52:34.382Z,76.80
2018-08-10T05:55:01.287Z,77.80
2018-08-10T05:57:28.350Z,77.00
2018-08-10T05:59:55.338Z,77.20
2018-08-10T06:02:22.306Z,74.20
2018-08-10T06:04:49.295Z,70.50
2018-08-10T06:07:16.299Z,67.80
2018-08-10T06:09:43.297Z,66.60
2018-08-10T06:39:08.988Z,66.50
2018-08-10T06:41:36.052Z,64.80
2018-08-10T06:44:03.416Z,64.40
2018-08-10T06:46:30.376Z,64.40
2018-08-10T06:48:57.458Z,65.00
2018-08-10T06:51:24.413Z,65.10
2018-08-10T06:53:51.502Z,64.40
2018-08-10T06:56:18.838Z,64.60
2018-08-10T06:58:45.811Z,65.60
2018-08-10T07:01:12.871Z,65.70
2018-08-10T07:03:39.945Z,65.40
2018-08-10T07:06:06.908Z,65.50
2018-08-10T07:11:01.140Z,64.80
2018-08-10T07:13:56.003Z,62.40
2018-08-10T07:16:23.026Z,60.60
2018-08-10T07:18:50.005Z,62.80
2018-08-10T07:21:17.023Z,63.20
2018-08-10T07:23:44.133Z,62.70
2018-08-10T07:26:11.510Z,61.30
2018-08-10T07:28:40.009Z,61.00
2018-08-10T07:31:07.065Z,61.60
2018-08-10T07:33:34.088Z,59.80
2018-08-10T07:36:01.265Z,59.00
2018-08-10T07:38:28.348Z,58.60
2018-08-10T07:40:55.369Z,59.10
2018-08-10T07:43:22.435Z,58.30
2018-08-10T07:45:49.519Z,60.10
2018-08-10T07:48:16.645Z,60.50
2018-08-10T07:50:43.669Z,59.50
2018-08-10T07:53:10.746Z,59.10
2018-08-10T07:55:37.784Z,59.10
2018-08-10T07:58:04.889Z,59.90
2018-08-10T08:00:31.880Z,59.50
2018-08-10T08:02:58.868Z,59.50
2018-08-10T08:05:25.973Z,59.40
2018-08-10T08:07:53.363Z,58.70
2018-08-10T08:10:20.373Z,59.70
2018-08-10T08:12:47.415Z,60.00
2018-08-10T08:15:14.532Z,59.20
2018-08-10T08:17:41.590Z,58.40
2018-08-10T08:20:08.861Z,58.10
2018-08-10T08:22:35.924Z,58.70
2018-08-10T08:25:03.535Z,57.80
2018-08-10T08:27:30.584Z,57.00
2018-08-10T08:29:57.613Z,56.80
2018-08-10T08:32:25.111Z,56.10
2018-08-10T08:34:52.402Z,54.40
2018-08-10T08:37:19.347Z,53.20
2018-08-10T08:40:21.971Z,52.20
2018-08-10T08:52:52.825Z,51.30
2018-08-10T08:55:29.715Z,51.90
2018-08-10T08:57:56.795Z,51.50
2018-08-10T09:00:23.825Z,52.00
2018-08-10T09:02:50.898Z,52.90
2018-08-10T09:05:17.903Z,52.60
2018-08-10T09:07:45.018Z,54.00
2018-08-10T09:10:14.270Z,53.30
2018-08-10T09:12:41.550Z,52.50
2018-08-10T09:15:10.592Z,53.00
2018-08-10T09:17:38.088Z,53.40
2018-08-10T09:20:05.992Z,53.50
2018-08-10T09:22:33.054Z,53.70
2018-08-10T09:25:00.134Z,55.40
2018-08-10T09:27:27.194Z,54.00
2018-08-10T09:29:54.204Z,54.00
2018-08-10T09:32:21.235Z,51.50
2018-08-10T09:34:48.270Z,51.70
2018-08-10T09:37:15.363Z,51.50
2018-08-10T09:39:42.718Z,51.00
2018-08-10T09:42:09.722Z,49.90
2018-08-10T09:47:04.577Z,49.50
2018-08-10T09:49:36.195Z,45.10
2018-08-10T09:52:03.355Z,44.40
2018-08-10T09:54:30.479Z,46.40
2018-08-10T10:09:21.700Z,46.30
2018-08-10T18:27:47.824Z,29.50
2018-08-10T18:30:18.913Z,35.90
2018-08-10T18:32:46.309Z,35.80
2018-08-10T18:35:13.261Z,38.20
2018-08-10T18:37:41.061Z,38.00
2018-08-10T18:40:10.202Z,38.30
2018-08-10T18:42:37.414Z,37.40
2018-08-10T18:45:05.665Z,37.50
2018-08-10T18:47:32.646Z,36.20
2018-08-10T18:49:59.597Z,36.60
2018-08-10T18:52:26.634Z,37.40
2018-08-10T18:54:53.595Z,38.10
2018-08-10T18:57:20.626Z,37.50
2018-08-10T18:59:47.719Z,38.30
2018-08-10T19:02:14.828Z,38.60
2018-08-10T19:04:41.867Z,37.50
2018-08-10T19:07:08.858Z,38.60
2018-08-10T19:09:35.824Z,38.90
2018-08-10T19:12:02.852Z,39.70
2018-08-10T19:14:29.860Z,39.40
2018-08-10T19:43:55.613Z,39.10
2018-08-10T19:46:22.586Z,41.60
2018-08-10T19:48:49.699Z,41.50
2018-08-10T19:51:16.666Z,42.00
2018-08-10T19:53:43.716Z,40.90
2018-08-10T19:56:10.795Z,41.30
2018-08-10T19:58:37.812Z,41.40
2018-08-10T20:01:04.803Z,41.50
2018-08-10T20:03:31.826Z,41.90
2018-08-10T20:05:59.068Z,41.90
2018-08-10T20:08:26.198Z,42.50
2018-08-10T20:10:53.135Z,42.70
2018-08-10T20:13:20.171Z,43.10
2018-08-10T20:15:47.145Z,43.00
2018-08-10T20:18:14.240Z,43.40
2018-08-10T20:20:41.229Z,43.80
2018-08-10T20:23:08.216Z,43.50
2018-08-10T20:25:35.205Z,44.00
2018-08-10T20:28:02.198Z,43.80
2018-08-10T20:30:29.225Z,44.10
2018-08-10T20:32:56.234Z,43.50
2018-08-10T20:35:23.245Z,44.50
2018-08-10T20:37:50.595Z,44.50
2018-08-10T20:40:18.564Z,44.30
2018-08-10T20:42:46.281Z,44.70
2018-08-10T20:45:13.720Z,45.20
2018-08-10T20:47:40.770Z,45.00
2018-08-10T20:50:10.353Z,45.60
2018-08-10T20:52:37.422Z,45.80
2018-08-10T20:55:04.450Z,46.10
2018-08-10T20:57:31.454Z,46.50
2018-08-10T20:59:58.465Z,46.90
2018-08-10T21:02:25.477Z,47.20
2018-08-10T21:04:52.458Z,47.60
2018-08-10T21:07:19.433Z,48.10
2018-08-10T21:09:46.487Z,49.20
2018-08-10T21:12:13.504Z,49.20
2018-08-10T21:14:40.439Z,49.80
2018-08-10T21:17:07.491Z,50.60
2018-08-10T21:19:34.449Z,49.90
2018-08-10T21:22:01.423Z,50.50
2018-08-10T21:24:28.429Z,50.00
2018-08-10T21:26:55.423Z,50.50
2018-08-10T21:29:22.407Z,50.90
2018-08-10T21:31:49.752Z,51.60
2018-08-10T21:34:16.855Z,51.70
2018-08-10T21:36:43.879Z,51.80
2018-08-10T21:39:11.982Z,51.10
2018-08-10T21:41:39.035Z,51.30
2018-08-10T21:44:06.109Z,51.00
2018-08-10T21:46:33.191Z,50.30
2018-08-10T21:49:00.182Z,50.60
2018-08-10T21:51:27.113Z,50.70
2018-08-10T21:53:54.130Z,51.10
2018-08-10T21:56:21.117Z,51.60
2018-08-10T21:58:48.188Z,50.90
2018-08-10T22:01:15.317Z,51.40
2018-08-10T22:03:42.295Z,51.70
2018-08-10T22:06:09.347Z,51.90
2018-08-10T22:08:36.672Z,52.10
2018-08-10T22:11:03.674Z,52.50
2018-08-10T22:16:09.497Z,52.70
2018-08-10T22:18:42.447Z,52.90
2018-08-10T22:21:09.443Z,53.90
2018-08-10T22:23:36.411Z,54.00
2018-08-10T22:26:03.488Z,54.10
2018-08-10T22:28:30.465Z,55.20
2018-08-10T22:30:57.433Z,55.20
2018-08-10T22:33:24.709Z,55.10
2018-08-10T22:35:51.749Z,55.40
2018-08-10T22:38:18.771Z,55.30
2018-08-10T22:40:45.792Z,55.20
2018-08-10T22:43:12.792Z,55.40
2018-08-10T22:45:40.502Z,55.10
2018-08-10T22:48:07.606Z,54.80
2018-08-10T22:50:34.605Z,54.60
2018-08-10T22:53:01.654Z,55.10
2018-08-10T22:55:28.654Z,55.20
2018-08-10T22:57:55.685Z,56.20
2018-08-10T23:00:22.733Z,55.70
2018-08-10T23:02:50.132Z,55.70
2018-08-10T23:05:17.094Z,55.80
2018-08-10T23:07:44.118Z,56.00
2018-08-10T23:10:11.983Z,56.10
2018-08-10T23:12:39.230Z,55.80
2018-08-10T23:15:06.546Z,55.50
2018-08-10T23:17:33.602Z,55.80
2018-08-10T23:20:00.550Z,55.60
2018-08-10T23:22:27.605Z,55.40
2018-08-10T23:24:54.675Z,55.00
2018-08-10T23:27:21.658Z,55.10
2018-08-10T23:29:48.653Z,55.50
2018-08-10T23:32:15.805Z,54.90
2018-08-10T23:34:42.835Z,54.40
2018-08-10T23:37:09.801Z,55.10
2018-08-10T23:39:36.757Z,55.00
2018-08-10T23:42:03.790Z,55.20
2018-08-10T23:44:30.773Z,54.70
2018-08-10T23:46:57.859Z,54.80
2018-08-10T23:49:24.896Z,54.70
2018-08-10T23:51:51.955Z,55.00
2018-08-10T23:54:18.921Z,54.80
2018-08-10T23:56:45.913Z,55.20
2018-08-10T23:59:12.955Z,54.80
